createdAt,value
2023-05-17T00:01:56.180Z,99891.55
2023-05-17T00:04:23.279Z,99889.64
2023-05-17T00:06:50.322Z,99895.09
2023-05-17T00:09:17.214Z,99891.74
2023-05-17T00:11:44.248Z,99894.33
2023-05-17T00:14:11.804Z,99894.23
2023-05-17T00:16:38.802Z,99891.64
2023-05-17T00:19:05.749Z,99889.09
2023-05-17T00:21:32.754Z,99890.71
2023-05-17T00:23:59.695Z,99883.77
2023-05-17T00:26:26.682Z,99887.02
2023-05-17T00:28:53.607Z,99887.36
2023-05-17T00:31:20.840Z,99886.86
2023-05-17T00:33:47.745Z,99886.33
2023-05-17T00:36:14.633Z,99886.68
2023-05-17T00:38:41.631Z,99888.08
2023-05-17T00:41:08.748Z,99889.27
2023-05-17T00:43:35.590Z,99890.85
2023-05-17T00:46:02.712Z,99891.55
2023-05-17T00:48:31.562Z,99895.44
2023-05-17T00:50:59.862Z,99892.86
2023-05-17T00:53:28.721Z,99890.98
2023-05-17T00:55:56.725Z,99893.15
2023-05-17T00:58:24.043Z,99891.52
2023-05-17T01:00:53.153Z,99891.67
2023-05-17T01:03:20.078Z,99887.90
2023-05-17T01:05:47.438Z,99888.86
2023-05-17T01:08:14.497Z,99886.04
2023-05-17T01:10:54.242Z,99885.80
2023-05-17T01:17:41.965Z,99882.54
2023-05-17T01:20:19.792Z,99880.70
2023-05-17T01:22:53.202Z,99878.84
2023-05-17T01:25:37.485Z,99881.46
2023-05-17T01:28:05.642Z,99876.15
2023-05-17T01:30:37.010Z,99879.54
2023-05-17T01:33:06.069Z,99874.61
2023-05-17T01:35:36.424Z,99874.14
2023-05-17T01:38:15.014Z,99879.11
2023-05-17T01:40:47.513Z,99876.60
2023-05-17T01:43:19.386Z,99883.08
2023-05-17T01:46:04.313Z,99882.55
2023-05-17T01:48:36.929Z,99881.36
2023-05-17T01:51:10.628Z,99880.67
2023-05-17T01:53:45.326Z,99879.66
2023-05-17T01:56:17.893Z,99880.10
2023-05-17T01:58:48.839Z,99878.41
2023-05-17T02:01:37.893Z,99878.73
2023-05-17T02:04:05.377Z,99880.45
2023-05-17T02:06:35.392Z,99882.68
2023-05-17T02:09:05.604Z,99886.31
2023-05-17T02:11:33.272Z,99887.98
2023-05-17T02:14:00.626Z,99888.52
2023-05-17T02:16:27.816Z,99889.36
2023-05-17T02:18:55.955Z,99886.02
2023-05-17T02:21:23.518Z,99884.60
2023-05-17T02:23:51.377Z,99885.59
2023-05-17T02:26:21.495Z,99887.54
2023-05-17T02:28:51.854Z,99890.89
2023-05-17T02:31:19.098Z,99894.85
2023-05-17T02:33:50.058Z,99896.55
2023-05-17T02:36:23.301Z,99892.55
2023-05-17T02:39:09.017Z,99894.19
2023-05-17T02:41:38.938Z,99893.39
2023-05-17T02:44:09.542Z,99898.55
2023-05-17T02:46:38.548Z,99899.23
2023-05-17T02:49:17.470Z,99903.17
2023-05-17T02:51:44.913Z,99905.47
2023-05-17T02:54:12.363Z,99909.95
2023-05-17T02:56:39.567Z,99914.71
2023-05-17T02:59:06.771Z,99909.17
2023-05-17T03:01:35.050Z,99908.69
2023-05-17T03:04:03.940Z,99908.44
2023-05-17T03:06:41.943Z,99913.59
2023-05-17T03:09:09.547Z,99914.77
2023-05-17T03:11:39.620Z,99914.38
2023-05-17T03:14:13.831Z,99917.66
2023-05-17T03:16:42.112Z,99914.48
2023-05-17T03:19:13.663Z,99921.75
2023-05-17T03:21:42.658Z,99928.53
2023-05-17T03:24:10.534Z,99929.32
2023-05-17T03:26:38.499Z,99930.42
2023-05-17T03:29:06.668Z,99931.14
2023-05-17T03:31:34.328Z,99926.45
2023-05-17T03:34:02.687Z,99918.30
2023-05-17T03:36:31.541Z,99919.11
2023-05-17T03:38:59.006Z,99921.42
2023-05-17T03:41:26.823Z,99926.50
2023-05-17T03:43:54.588Z,99930.53
2023-05-17T03:46:22.457Z,99932.61
2023-05-17T03:48:50.097Z,99929.83
2023-05-17T03:51:20.146Z,99927.56
2023-05-17T03:53:47.594Z,99927.60
2023-05-17T03:56:16.096Z,99927.31
2023-05-17T03:58:43.231Z,99927.90
2023-05-17T04:01:13.487Z,99930.93
2023-05-17T04:03:41.323Z,99933.39
2023-05-17T04:06:10.340Z,99939.99
2023-05-17T04:08:38.488Z,99939.20
2023-05-17T04:11:10.781Z,99939.84
2023-05-17T04:13:38.760Z,99939.64
2023-05-17T04:16:07.211Z,99943.41
2023-05-17T04:18:37.792Z,99944.44
2023-05-17T04:21:05.831Z,99946.73
2023-05-17T04:23:35.395Z,99946.26
2023-05-17T04:26:06.498Z,99951.20
2023-05-17T04:28:36.176Z,99952.20
2023-05-17T04:31:08.254Z,99954.98
2023-05-17T04:33:35.659Z,99951.31
2023-05-17T04:36:04.173Z,99952.96
2023-05-17T04:38:31.729Z,99948.80
2023-05-17T04:41:05.266Z,99949.06
2023-05-17T04:43:34.364Z,99950.55
2023-05-17T04:46:03.357Z,99953.66
2023-05-17T04:48:34.196Z,99958.69
2023-05-17T04:51:04.416Z,99961.13
2023-05-17T04:53:32.235Z,99962.29
2023-05-17T04:56:01.135Z,99964.49
2023-05-17T04:58:28.725Z,99968.08
2023-05-17T05:00:58.973Z,99969.09
2023-05-17T05:03:31.646Z,99972.49
2023-05-17T05:06:04.366Z,99972.83
2023-05-17T05:08:34.585Z,99975.38
2023-05-17T05:11:13.419Z,99979.89
2023-05-17T05:13:41.917Z,99976.11
2023-05-17T05:16:13.397Z,99978.92
2023-05-17T05:18:40.942Z,99982.97
2023-05-17T05:21:08.193Z,99984.28
2023-05-17T05:23:38.386Z,99978.63
2023-05-17T05:26:06.465Z,99976.01
2023-05-17T05:28:34.227Z,99971.54
2023-05-17T05:31:02.393Z,99970.45
2023-05-17T05:33:36.826Z,99973.80
2023-05-17T05:36:14.313Z,99974.48
2023-05-17T05:38:41.750Z,99971.73
2023-05-17T05:41:09.022Z,99964.96
2023-05-17T05:43:38.248Z,99946.46
2023-05-17T05:46:05.931Z,99932.85
2023-05-17T05:48:33.491Z,99924.16
2023-05-17T05:51:01.011Z,99928.61
2023-05-17T05:53:28.475Z,99933.83
2023-05-17T05:55:56.239Z,99934.78
2023-05-17T05:58:23.994Z,99937.67
2023-05-17T06:01:11.898Z,99947.10
2023-05-17T06:03:39.495Z,99957.70
2023-05-17T06:06:07.728Z,99967.63
2023-05-17T06:08:35.330Z,99970.21
2023-05-17T06:11:02.617Z,99976.36
2023-05-17T06:13:31.354Z,99974.95
2023-05-17T06:16:01.387Z,99975.99
2023-05-17T06:18:29.005Z,99976.90
2023-05-17T06:20:56.760Z,99985.47
2023-05-17T06:23:26.007Z,99986.77
2023-05-17T06:25:53.758Z,99990.79
2023-05-17T06:28:21.744Z,99990.53
2023-05-17T06:30:49.432Z,99993.41
2023-05-17T06:33:17.466Z,99996.00
2023-05-17T06:35:55.712Z,99996.27
2023-05-17T06:38:25.198Z,99996.44
2023-05-17T06:40:55.458Z,100000.80
2023-05-17T06:43:23.655Z,100004.81
2023-05-17T06:45:51.651Z,100016.67
2023-05-17T06:48:19.538Z,100021.83
2023-05-17T06:50:55.173Z,100028.02
2023-05-17T06:53:22.556Z,100033.98
2023-05-17T06:55:49.817Z,100035.44
2023-05-17T06:58:25.220Z,100038.20
2023-05-17T07:00:52.612Z,100037.09
2023-05-17T07:03:20.843Z,100036.57
2023-05-17T07:05:49.915Z,100033.34
2023-05-17T07:08:20.180Z,100032.77
2023-05-17T07:10:53.976Z,100029.81
2023-05-17T07:13:21.560Z,100026.25
2023-05-17T07:15:49.020Z,100028.59
2023-05-17T07:18:16.744Z,100034.02
2023-05-17T07:20:44.533Z,100035.80
2023-05-17T07:23:11.889Z,100034.08
2023-05-17T07:25:40.769Z,100035.55
2023-05-17T07:28:16.937Z,100032.99
2023-05-17T07:30:44.455Z,100029.30
2023-05-17T07:33:11.896Z,100029.84
2023-05-17T07:35:39.934Z,100031.33
2023-05-17T07:38:08.301Z,100030.72
2023-05-17T07:40:35.900Z,100028.38
2023-05-17T07:43:04.243Z,100033.53
2023-05-17T07:45:42.899Z,100037.08
2023-05-17T07:48:14.694Z,100046.48
2023-05-17T07:50:44.497Z,100048.21
2023-05-17T07:53:23.903Z,100050.92
2023-05-17T07:56:12.542Z,100052.21
2023-05-17T07:58:40.294Z,100054.48
2023-05-17T08:01:10.242Z,100054.17
2023-05-17T08:03:38.381Z,100059.65
2023-05-17T08:06:06.573Z,100060.29
2023-05-17T08:08:35.560Z,100063.69
2023-05-17T08:11:03.322Z,100061.08
2023-05-17T08:13:31.000Z,100055.35
2023-05-17T08:16:12.647Z,100052.00
2023-05-17T08:18:43.623Z,100049.52
2023-05-17T08:21:11.601Z,100058.03
2023-05-17T08:23:39.198Z,100053.08
2023-05-17T08:26:06.966Z,100055.46
2023-05-17T08:28:35.015Z,100058.28
2023-05-17T08:31:02.659Z,100064.34
2023-05-17T08:33:30.478Z,100067.46
2023-05-17T08:35:59.518Z,100069.07
2023-05-17T08:38:27.456Z,100070.27
2023-05-17T08:41:00.118Z,100069.77
2023-05-17T08:43:30.383Z,100072.64
2023-05-17T08:45:59.517Z,100075.98
2023-05-17T08:48:31.632Z,100081.27
2023-05-17T08:51:12.358Z,100088.50
2023-05-17T08:53:42.787Z,100095.54
2023-05-17T08:56:13.067Z,100099.70
2023-05-17T08:58:56.560Z,100101.90
2023-05-17T09:01:27.939Z,100099.40
2023-05-17T09:03:56.710Z,100097.83
2023-05-17T09:06:25.446Z,100096.06
2023-05-17T09:08:54.975Z,100098.88
2023-05-17T09:11:30.301Z,100096.33
2023-05-17T09:14:01.704Z,100099.05
2023-05-17T09:16:31.613Z,100105.21
2023-05-17T09:19:00.281Z,100100.83
2023-05-17T09:21:41.000Z,100098.79
2023-05-17T09:24:09.298Z,100095.64
2023-05-17T09:26:44.441Z,100095.61
2023-05-17T09:29:13.730Z,100098.35
2023-05-17T09:31:42.084Z,100101.06
2023-05-17T09:34:09.995Z,100098.44
2023-05-17T09:36:39.444Z,100105.92
2023-05-17T09:39:12.300Z,100113.25
2023-05-17T09:41:47.071Z,100117.29
2023-05-17T09:44:15.842Z,100123.98
2023-05-17T09:46:49.038Z,100121.45
2023-05-17T09:49:17.646Z,100120.65
2023-05-17T09:51:48.885Z,100118.63
2023-05-17T09:54:17.931Z,100123.86
2023-05-17T09:56:45.232Z,100128.45
2023-05-17T09:59:16.850Z,100138.18
2023-05-17T10:01:54.686Z,100138.17
2023-05-17T10:04:24.888Z,100140.21
2023-05-17T10:06:57.613Z,100145.29
2023-05-17T10:09:27.069Z,100142.67
2023-05-17T10:11:57.970Z,100143.02
2023-05-17T10:14:33.181Z,100146.63
2023-05-17T10:17:03.300Z,100147.73
2023-05-17T10:19:31.648Z,100144.09
2023-05-17T10:22:11.116Z,100146.44
2023-05-17T10:24:55.134Z,100146.61
2023-05-17T10:27:27.712Z,100150.31
2023-05-17T10:30:09.141Z,100156.13
2023-05-17T10:32:37.641Z,100158.90
2023-05-17T10:35:12.005Z,100158.66
2023-05-17T10:37:40.432Z,100157.83
2023-05-17T10:40:13.399Z,100156.67
2023-05-17T10:42:43.893Z,100156.74
2023-05-17T10:45:12.991Z,100157.73
2023-05-17T10:47:43.809Z,100155.52
2023-05-17T10:50:25.700Z,100158.67
2023-05-17T10:53:01.264Z,100162.18
2023-05-17T10:55:40.493Z,100164.81
2023-05-17T10:58:19.906Z,100165.77
2023-05-17T11:00:49.649Z,100163.78
2023-05-17T11:03:18.858Z,100164.05
2023-05-17T11:06:12.817Z,100161.42
2023-05-17T11:09:08.257Z,100163.88
2023-05-17T11:11:36.658Z,100167.65
2023-05-17T11:14:06.842Z,100171.05
2023-05-17T11:16:39.614Z,100176.23
2023-05-17T11:19:12.186Z,100177.70
2023-05-17T11:21:46.626Z,100180.81
2023-05-17T11:24:18.962Z,100178.10
2023-05-17T11:26:51.677Z,100184.14
2023-05-17T11:29:33.361Z,100186.95
2023-05-17T11:32:11.367Z,100187.35
2023-05-17T11:34:39.529Z,100184.81
2023-05-17T11:37:12.069Z,100184.58
2023-05-17T11:40:06.508Z,100183.73
2023-05-17T11:42:43.285Z,100185.96
2023-05-17T11:45:12.265Z,100182.58
2023-05-17T11:47:42.902Z,100187.92
2023-05-17T11:50:12.262Z,100185.11
2023-05-17T11:52:41.982Z,100188.98
2023-05-17T11:55:15.587Z,100188.67
2023-05-17T11:57:44.243Z,100184.47
2023-05-17T12:00:18.039Z,100184.72
2023-05-17T12:02:48.415Z,100185.14
2023-05-17T12:05:22.695Z,100185.80
2023-05-17T12:07:50.659Z,100188.71
2023-05-17T12:10:18.513Z,100187.31
2023-05-17T12:12:54.046Z,100190.41
2023-05-17T12:15:24.160Z,100194.86
2023-05-17T12:17:52.496Z,100195.85
2023-05-17T12:20:20.324Z,100198.02
2023-05-17T12:22:57.728Z,100204.34
2023-05-17T12:25:28.134Z,100208.38
2023-05-17T12:27:55.693Z,100214.16
2023-05-17T12:30:24.830Z,100216.13
2023-05-17T12:32:52.556Z,100216.23
2023-05-17T12:35:20.111Z,100217.19
2023-05-17T12:37:47.655Z,100210.58
2023-05-17T12:40:15.861Z,100212.22
2023-05-17T12:42:44.113Z,100209.66
2023-05-17T12:45:13.849Z,100210.84
2023-05-17T12:47:41.420Z,100211.80
2023-05-17T12:50:30.541Z,100215.42
2023-05-17T12:52:58.174Z,100218.45
2023-05-17T12:55:26.801Z,100218.96
2023-05-17T12:57:55.676Z,100217.98
2023-05-17T13:00:24.260Z,100216.27
2023-05-17T13:02:51.912Z,100218.58
2023-05-17T13:05:21.866Z,100217.30
2023-05-17T13:07:49.815Z,100212.45
2023-05-17T13:10:27.363Z,100210.39
2023-05-17T13:13:01.869Z,100212.36
2023-05-17T13:15:34.615Z,100211.10
2023-05-17T13:18:13.692Z,100208.95
2023-05-17T13:20:41.093Z,100209.92
2023-05-17T13:23:08.789Z,100212.19
2023-05-17T13:25:36.931Z,100209.97
2023-05-17T13:28:04.537Z,100212.27
2023-05-17T13:30:35.371Z,100213.59
2023-05-17T13:33:02.655Z,100216.49
2023-05-17T13:35:41.304Z,100222.02
2023-05-17T13:38:08.489Z,100230.75
2023-05-17T13:40:35.815Z,100232.32
2023-05-17T13:43:03.406Z,100241.23
2023-05-17T13:45:30.553Z,100241.35
2023-05-17T13:48:00.497Z,100243.80
2023-05-17T13:50:28.320Z,100250.30
2023-05-17T13:52:55.886Z,100255.92
2023-05-17T13:55:23.781Z,100256.58
2023-05-17T13:57:51.798Z,100254.23
2023-05-17T14:00:20.182Z,100253.67
2023-05-17T14:02:48.031Z,100255.81
2023-05-17T14:05:15.719Z,100260.13
2023-05-17T14:07:43.833Z,100254.98
2023-05-17T14:10:13.407Z,100256.58
2023-05-17T14:12:42.309Z,100254.34
2023-05-17T14:15:12.632Z,100266.24
2023-05-17T14:17:39.936Z,100262.70
2023-05-17T14:20:09.457Z,100263.75
2023-05-17T14:22:36.920Z,100265.92
2023-05-17T14:25:04.603Z,100270.38
2023-05-17T14:27:31.938Z,100278.83
2023-05-17T14:29:59.089Z,100283.95
2023-05-17T14:32:29.119Z,100288.47
2023-05-17T14:34:56.289Z,100293.55
2023-05-17T14:37:23.715Z,100301.02
2023-05-17T14:40:05.369Z,100305.84
2023-05-17T14:42:36.374Z,100314.09
2023-05-17T14:45:14.246Z,100321.56
2023-05-17T14:47:42.141Z,100323.91
2023-05-17T14:50:11.131Z,100322.86
2023-05-17T14:52:38.593Z,100323.50
2023-05-17T14:55:06.982Z,100326.09
2023-05-17T14:57:37.368Z,100323.76
2023-05-17T15:00:10.463Z,100324.41
2023-05-17T15:02:38.301Z,100325.98
2023-05-17T15:05:26.539Z,100326.60
2023-05-17T15:07:54.341Z,100327.55
2023-05-17T15:10:22.019Z,100330.19
2023-05-17T15:12:49.460Z,100336.15
2023-05-17T15:15:17.239Z,100340.22
2023-05-17T15:17:44.511Z,100347.91
2023-05-17T15:20:13.734Z,100351.11
2023-05-17T15:22:41.748Z,100353.23
2023-05-17T15:25:29.442Z,100357.63
2023-05-17T15:27:57.134Z,100361.45
2023-05-17T15:30:27.805Z,100362.77
2023-05-17T15:32:55.203Z,100366.86
2023-05-17T15:35:22.891Z,100368.91
2023-05-17T15:38:00.585Z,100368.59
2023-05-17T15:40:28.656Z,100367.22
2023-05-17T15:42:56.116Z,100366.38
2023-05-17T15:45:23.677Z,100370.06
2023-05-17T15:47:50.941Z,100373.63
2023-05-17T15:50:18.498Z,100373.48
2023-05-17T15:52:47.518Z,100374.00
2023-05-17T15:55:14.938Z,100375.40
2023-05-17T15:57:43.517Z,100377.29
2023-05-17T16:00:13.610Z,100377.71
2023-05-17T16:02:41.249Z,100381.80
2023-05-17T16:05:11.965Z,100378.59
2023-05-17T16:07:39.288Z,100382.31
2023-05-17T16:10:08.091Z,100382.11
2023-05-17T16:12:36.062Z,100386.44
2023-05-17T16:15:03.648Z,100388.87
2023-05-17T16:17:31.349Z,100379.30
2023-05-17T16:19:58.921Z,100384.06
2023-05-17T16:22:26.500Z,100386.31
2023-05-17T16:24:57.195Z,100388.64
2023-05-17T16:27:24.478Z,100387.52
2023-05-17T16:29:51.741Z,100389.20
2023-05-17T16:32:21.342Z,100387.00
2023-05-17T16:34:48.717Z,100389.46
2023-05-17T16:37:16.053Z,100395.59
2023-05-17T16:39:43.710Z,100400.11
2023-05-17T16:42:11.070Z,100400.27
2023-05-17T16:44:38.328Z,100401.44
2023-05-17T16:47:06.354Z,100394.73
2023-05-17T16:49:33.572Z,100392.39
2023-05-17T16:52:00.894Z,100398.60
2023-05-17T16:54:28.664Z,100405.70
2023-05-17T16:56:56.145Z,100408.45
2023-05-17T16:59:24.298Z,100410.90
2023-05-17T17:01:51.885Z,100410.25
2023-05-17T17:04:19.318Z,100406.84
2023-05-17T17:06:57.929Z,100405.34
2023-05-17T17:09:25.387Z,100408.05
2023-05-17T17:11:52.972Z,100414.05
2023-05-17T17:14:20.811Z,100417.02
2023-05-17T17:16:48.214Z,100423.30
2023-05-17T17:19:15.577Z,100424.48
2023-05-17T17:21:44.000Z,100429.33
2023-05-17T17:24:20.400Z,100436.94
2023-05-17T17:26:47.736Z,100437.08
2023-05-17T17:29:14.975Z,100431.83
2023-05-17T17:31:43.733Z,100435.44
2023-05-17T17:34:11.441Z,100440.83
2023-05-17T17:36:38.986Z,100443.25
2023-05-17T17:39:06.376Z,100442.30
2023-05-17T17:41:33.883Z,100444.14
2023-05-17T17:44:10.202Z,100452.66
2023-05-17T17:46:37.851Z,100456.30
2023-05-17T17:49:05.113Z,100461.66
2023-05-17T17:51:34.587Z,100462.20
2023-05-17T17:54:04.094Z,100466.88
2023-05-17T17:56:32.924Z,100465.48
2023-05-17T17:59:00.482Z,100468.20
2023-05-17T18:01:29.807Z,100468.30
2023-05-17T18:03:57.407Z,100467.20
2023-05-17T18:06:26.390Z,100472.73
2023-05-17T18:08:53.962Z,100479.68
2023-05-17T18:11:21.414Z,100478.53
2023-05-17T18:13:48.767Z,100478.71
2023-05-17T18:16:16.135Z,100480.55
2023-05-17T18:18:43.432Z,100484.32
2023-05-17T18:21:12.488Z,100488.73
2023-05-17T18:23:39.969Z,100492.12
2023-05-17T18:26:10.414Z,100498.46
2023-05-17T18:28:41.792Z,100502.02
2023-05-17T18:31:09.984Z,100505.57
2023-05-17T18:33:37.194Z,100510.16
2023-05-17T18:36:04.819Z,100515.45
2023-05-17T18:38:32.368Z,100522.80
2023-05-17T18:40:59.606Z,100528.06
2023-05-17T18:43:26.858Z,100533.69
2023-05-17T18:45:54.215Z,100543.35
2023-05-17T18:48:25.473Z,100549.86
2023-05-17T18:50:52.624Z,100555.17
2023-05-17T18:53:20.067Z,100560.46
2023-05-17T18:55:47.338Z,100566.06
2023-05-17T18:58:14.510Z,100566.98
2023-05-17T19:00:41.799Z,100570.19
2023-05-17T19:03:09.209Z,100577.52
2023-05-17T19:05:36.583Z,100575.30
2023-05-17T19:08:04.113Z,100577.96
2023-05-17T19:10:34.047Z,100578.91
2023-05-17T19:13:01.269Z,100580.35
2023-05-17T19:15:31.794Z,100583.02
2023-05-17T19:17:59.269Z,100583.04
2023-05-17T19:20:26.847Z,100587.12
2023-05-17T19:22:54.308Z,100581.63
2023-05-17T19:25:21.621Z,100580.41
2023-05-17T19:27:48.874Z,100582.70
2023-05-17T19:30:16.487Z,100580.67
2023-05-17T19:32:44.045Z,100583.17
2023-05-17T19:35:12.459Z,100583.56
2023-05-17T19:37:39.970Z,100583.59
2023-05-17T19:40:09.846Z,100580.20
2023-05-17T19:42:37.200Z,100583.74
2023-05-17T19:45:04.717Z,100585.71
2023-05-17T19:47:43.416Z,100586.32
2023-05-17T19:50:13.489Z,100585.52
2023-05-17T19:52:44.379Z,100586.45
2023-05-17T19:55:24.902Z,100584.77
2023-05-17T19:57:52.359Z,100584.48
2023-05-17T20:00:21.140Z,100583.70
2023-05-17T20:02:48.891Z,100588.95
2023-05-17T20:05:17.217Z,100590.05
2023-05-17T20:07:44.585Z,100592.89
2023-05-17T20:10:13.636Z,100595.19
2023-05-17T20:12:41.007Z,100597.30
2023-05-17T20:15:10.592Z,100594.02
2023-05-17T20:17:38.083Z,100595.48
2023-05-17T20:20:06.724Z,100593.45
2023-05-17T20:22:36.354Z,100597.63
2023-05-17T20:25:04.050Z,100597.52
2023-05-17T20:27:31.124Z,100599.83
2023-05-17T20:29:58.414Z,100603.33
2023-05-17T20:32:25.786Z,100607.00
2023-05-17T20:34:52.953Z,100612.05
2023-05-17T20:37:20.106Z,100610.00
2023-05-17T20:39:48.043Z,100610.73
2023-05-17T20:42:18.570Z,100609.55
2023-05-17T20:44:46.447Z,100611.70
2023-05-17T20:47:13.997Z,100617.33
2023-05-17T20:49:41.868Z,100618.65
2023-05-17T20:52:09.423Z,100627.78
2023-05-17T20:54:37.146Z,100630.45
2023-05-17T20:57:06.595Z,100636.27
2023-05-17T20:59:33.848Z,100642.44
2023-05-17T21:02:01.968Z,100645.00
2023-05-17T21:04:29.072Z,100646.65
2023-05-17T21:06:58.178Z,100648.48
2023-05-17T21:09:25.620Z,100655.14
2023-05-17T21:11:53.413Z,100656.26
2023-05-17T21:14:20.748Z,100661.54
2023-05-17T21:16:48.079Z,100662.61
2023-05-17T21:19:15.245Z,100669.58
2023-05-17T21:21:42.630Z,100672.39
2023-05-17T21:24:11.326Z,100673.80
2023-05-17T21:26:40.781Z,100670.64
2023-05-17T21:29:08.673Z,100672.37
2023-05-17T21:31:38.536Z,100672.37
2023-05-17T21:34:05.771Z,100680.05
2023-05-17T21:36:33.078Z,100683.19
2023-05-17T21:39:00.539Z,100689.92
2023-05-17T21:41:28.135Z,100691.63
2023-05-17T21:43:55.558Z,100691.59
2023-05-17T21:46:23.565Z,100694.55
2023-05-17T21:49:02.035Z,100697.55
2023-05-17T21:51:29.626Z,100702.11
2023-05-17T21:53:57.303Z,100704.58
2023-05-17T21:56:24.552Z,100707.92
2023-05-17T21:58:53.064Z,100711.29
2023-05-17T22:01:24.356Z,100710.31
2023-05-17T22:03:53.839Z,100714.52
2023-05-17T22:06:21.824Z,100714.78
2023-05-17T22:08:51.736Z,100717.08
2023-05-17T22:11:22.705Z,100721.58
2023-05-17T22:13:50.543Z,100725.60
2023-05-17T22:16:18.888Z,100723.98
2023-05-17T22:18:52.739Z,100723.23
2023-05-17T22:21:29.231Z,100724.77
2023-05-17T22:23:59.621Z,100727.71
2023-05-17T22:26:27.992Z,100725.81
2023-05-17T22:28:55.828Z,100726.88
2023-05-17T22:31:47.662Z,100733.37
2023-05-17T22:34:17.420Z,100736.40
2023-05-17T22:36:57.291Z,100734.02
2023-05-17T22:39:24.762Z,100737.20
2023-05-17T22:41:52.796Z,100743.52
2023-05-17T22:44:34.188Z,100746.17
2023-05-17T22:47:04.338Z,100747.96
2023-05-17T22:49:43.631Z,100749.23
2023-05-17T22:52:11.387Z,100746.86
2023-05-17T22:54:41.308Z,100751.46
2023-05-17T22:57:09.680Z,100752.58
2023-05-17T22:59:39.812Z,100750.90
2023-05-17T23:02:10.120Z,100755.84
2023-05-17T23:04:46.985Z,100756.42
2023-05-17T23:07:17.465Z,100767.80
2023-05-17T23:09:47.859Z,100775.16
2023-05-17T23:12:17.601Z,100777.86
2023-05-17T23:14:54.446Z,100781.73
2023-05-17T23:17:33.464Z,100782.80
2023-05-17T23:20:02.396Z,100785.61
2023-05-17T23:22:31.464Z,100790.84
2023-05-17T23:24:59.022Z,100797.81
2023-05-17T23:27:30.171Z,100798.86
2023-05-17T23:30:01.196Z,100803.73
2023-05-17T23:32:32.786Z,100805.63
2023-05-17T23:35:10.823Z,100806.15
2023-05-17T23:37:38.429Z,100809.10
2023-05-17T23:40:07.310Z,100809.48
2023-05-17T23:42:34.675Z,100810.40
2023-05-17T23:45:02.350Z,100808.52
2023-05-17T23:47:29.811Z,100809.59
2023-05-17T23:49:57.799Z,100809.62
2023-05-17T23:52:25.319Z,100809.98
2023-05-17T23:54:57.499Z,100808.98
2023-05-17T23:57:27.607Z,100811.79
2023-05-17T23:59:54.907Z,100815.27
